createdAt,value
2022-12-26T00:01:25.746Z,13.99
2022-12-26T00:03:54.477Z,13.96
2022-12-26T00:06:26.966Z,13.88
2022-12-26T00:08:56.047Z,13.86
2022-12-26T00:11:25.087Z,13.94
2022-12-26T00:13:55.517Z,14.01
2022-12-26T00:16:24.409Z,13.98
2022-12-26T00:18:52.917Z,13.86
2022-12-26T00:21:21.807Z,13.85
2022-12-26T00:23:51.883Z,13.93
2022-12-26T00:26:21.565Z,13.93
2022-12-26T00:28:49.938Z,13.91
2022-12-26T00:31:20.939Z,13.94
2022-12-26T00:33:49.785Z,13.97
2022-12-26T00:36:19.847Z,13.94
2022-12-26T00:38:48.571Z,13.88
2022-12-26T00:41:19.281Z,13.89
2022-12-26T00:43:47.567Z,13.93
2022-12-26T00:46:15.783Z,13.92
2022-12-26T00:48:44.053Z,13.90
2022-12-26T00:51:12.323Z,13.94
2022-12-26T00:53:40.992Z,13.92
2022-12-26T00:56:09.291Z,13.85
2022-12-26T00:58:38.960Z,13.88
2022-12-26T01:01:08.912Z,13.86
2022-12-26T01:03:37.117Z,13.90
2022-12-26T01:06:06.051Z,13.86
2022-12-26T01:08:34.236Z,13.85
2022-12-26T01:11:05.595Z,13.85
2022-12-26T01:13:33.869Z,13.89
2022-12-26T01:16:03.816Z,13.91
2022-12-26T01:18:31.964Z,13.91
2022-12-26T01:21:01.146Z,13.85
2022-12-26T01:23:29.709Z,13.80
2022-12-26T01:26:17.793Z,13.79
2022-12-26T01:28:45.924Z,13.77
2022-12-26T01:31:15.473Z,13.91
2022-12-26T01:33:43.559Z,13.92
2022-12-26T01:36:12.411Z,13.94
2022-12-26T01:38:40.534Z,13.94
2022-12-26T01:41:19.631Z,13.94
2022-12-26T01:43:57.641Z,13.83
2022-12-26T01:46:32.201Z,13.82
2022-12-26T01:49:03.119Z,13.69
2022-12-26T01:51:35.147Z,13.64
2022-12-26T01:54:39.735Z,13.73
2022-12-26T01:56:54.551Z,13.75
2022-12-26T01:59:26.223Z,13.71
2022-12-26T02:01:56.684Z,13.63
2022-12-26T02:04:47.885Z,13.69
2022-12-26T02:07:15.945Z,13.78
2022-12-26T02:09:45.575Z,13.80
2022-12-26T02:12:35.769Z,13.71
2022-12-26T02:15:09.778Z,13.67
2022-12-26T02:17:40.576Z,13.64
2022-12-26T02:20:18.285Z,13.56
2022-12-26T02:23:19.222Z,13.66
2022-12-26T02:26:29.166Z,13.65
2022-12-26T02:29:25.855Z,13.78
2022-12-26T02:32:04.839Z,13.81
2022-12-26T02:34:46.043Z,13.73
2022-12-26T02:37:25.636Z,13.76
2022-12-26T02:40:13.257Z,13.77
2022-12-26T02:42:55.178Z,13.78
2022-12-26T02:45:48.051Z,13.77
2022-12-26T02:48:25.153Z,13.80
2022-12-26T02:51:23.117Z,13.82
2022-12-26T02:54:18.914Z,13.78
2022-12-26T02:57:10.114Z,13.88
2022-12-26T03:00:04.955Z,13.88
2022-12-26T03:02:56.230Z,13.88
2022-12-26T03:05:48.621Z,13.92
2022-12-26T03:08:41.383Z,13.95
2022-12-26T03:11:27.201Z,13.99
2022-12-26T03:14:00.839Z,13.94
2022-12-26T03:16:48.218Z,13.98
2022-12-26T03:19:16.783Z,13.93
2022-12-26T03:21:48.448Z,13.90
2022-12-26T03:24:18.227Z,13.91
2022-12-26T03:26:51.954Z,13.97
2022-12-26T03:29:39.616Z,14.04
2022-12-26T03:32:12.031Z,13.99
2022-12-26T03:34:43.197Z,14.09
2022-12-26T03:37:47.445Z,13.99
2022-12-26T03:40:43.249Z,13.93
2022-12-26T03:43:39.531Z,13.96
2022-12-26T03:46:36.073Z,14.01
2022-12-26T03:49:27.995Z,14.01
2022-12-26T03:52:19.061Z,13.85
2022-12-26T03:55:16.154Z,13.74
2022-12-26T03:58:07.020Z,13.84
2022-12-26T04:00:54.501Z,13.92
2022-12-26T04:03:42.200Z,13.94
2022-12-26T04:06:36.302Z,14.00
2022-12-26T04:09:28.759Z,13.99
2022-12-26T04:12:19.933Z,13.90
2022-12-26T04:15:10.155Z,13.97
2022-12-26T04:17:59.916Z,14.06
2022-12-26T04:20:34.091Z,13.96
2022-12-26T04:23:24.700Z,13.91
2022-12-26T04:26:17.965Z,14.00
2022-12-26T04:29:05.064Z,14.07
2022-12-26T04:31:53.467Z,14.05
2022-12-26T04:34:44.512Z,14.09
2022-12-26T04:37:36.352Z,14.09
2022-12-26T04:40:23.099Z,14.11
2022-12-26T04:43:47.588Z,14.15
2022-12-26T04:45:58.409Z,14.09
2022-12-26T04:48:44.347Z,14.07
2022-12-26T04:51:12.421Z,14.12
2022-12-26T04:53:40.463Z,14.00
2022-12-26T04:56:09.766Z,14.08
2022-12-26T04:58:37.865Z,14.05
2022-12-26T05:01:21.219Z,13.98
2022-12-26T05:04:06.573Z,14.13
2022-12-26T05:06:51.836Z,13.99
2022-12-26T05:09:36.211Z,13.98
2022-12-26T05:12:05.140Z,14.05
2022-12-26T05:14:35.876Z,14.12
2022-12-26T05:17:23.615Z,14.14
2022-12-26T05:20:08.959Z,14.04
2022-12-26T05:22:58.544Z,14.01
2022-12-26T05:25:47.520Z,14.08
2022-12-26T05:28:34.201Z,14.07
2022-12-26T05:31:03.345Z,14.11
2022-12-26T05:33:50.768Z,14.23
2022-12-26T05:36:21.574Z,14.13
2022-12-26T05:38:50.198Z,14.11
2022-12-26T05:41:19.713Z,14.01
2022-12-26T05:43:47.997Z,14.11
2022-12-26T05:46:16.471Z,14.09
2022-12-26T05:48:46.186Z,14.10
2022-12-26T05:51:14.726Z,14.05
2022-12-26T05:53:43.015Z,14.14
2022-12-26T05:56:13.425Z,14.09
2022-12-26T05:58:42.146Z,14.01
2022-12-26T06:01:12.348Z,14.06
2022-12-26T06:03:41.747Z,13.97
2022-12-26T06:06:12.039Z,14.03
2022-12-26T06:08:40.854Z,14.08
2022-12-26T06:11:10.829Z,13.98
2022-12-26T06:13:39.756Z,14.03
2022-12-26T06:16:09.419Z,14.07
2022-12-26T06:18:38.132Z,14.14
2022-12-26T06:21:07.427Z,14.11
2022-12-26T06:23:37.794Z,14.13
2022-12-26T06:26:07.305Z,14.07
2022-12-26T06:28:35.920Z,13.95
2022-12-26T06:31:05.106Z,13.99
2022-12-26T06:33:33.445Z,13.98
2022-12-26T06:36:07.358Z,13.91
2022-12-26T06:38:37.831Z,13.83
2022-12-26T06:41:06.942Z,13.92
2022-12-26T06:43:35.301Z,13.89
2022-12-26T06:46:04.890Z,14.04
2022-12-26T06:48:33.982Z,14.08
2022-12-26T06:51:05.014Z,14.03
2022-12-26T06:53:36.459Z,14.13
2022-12-26T06:56:09.023Z,14.10
2022-12-26T06:58:37.554Z,14.06
2022-12-26T07:01:07.415Z,13.95
2022-12-26T07:03:37.208Z,13.92
2022-12-26T07:06:06.959Z,13.89
2022-12-26T07:08:36.717Z,13.91
2022-12-26T07:11:05.604Z,13.88
2022-12-26T07:13:33.972Z,13.91
2022-12-26T07:16:02.338Z,13.85
2022-12-26T07:18:30.639Z,13.81
2022-12-26T07:20:58.963Z,13.74
2022-12-26T07:23:27.267Z,13.74
2022-12-26T07:25:56.996Z,13.82
2022-12-26T07:28:25.293Z,13.80
2022-12-26T07:30:53.915Z,13.91
2022-12-26T07:33:22.584Z,13.97
2022-12-26T07:35:51.047Z,13.92
2022-12-26T07:38:19.316Z,13.93
2022-12-26T07:40:48.039Z,13.94
2022-12-26T07:43:17.649Z,13.85
2022-12-26T07:45:46.162Z,13.97
2022-12-26T07:48:14.536Z,14.04
2022-12-26T07:50:45.608Z,13.98
2022-12-26T07:53:14.146Z,13.99
2022-12-26T07:55:42.441Z,13.97
2022-12-26T07:58:10.821Z,13.97
2022-12-26T08:00:40.476Z,13.95
2022-12-26T08:03:10.939Z,13.98
2022-12-26T08:05:39.895Z,13.97
2022-12-26T08:08:08.255Z,13.98
2022-12-26T08:10:36.511Z,14.06
2022-12-26T08:13:04.902Z,14.01
2022-12-26T08:15:33.983Z,14.09
2022-12-26T08:18:03.703Z,14.05
2022-12-26T08:20:32.076Z,13.93
2022-12-26T08:23:00.659Z,13.97
2022-12-26T08:25:29.230Z,14.12
2022-12-26T08:27:57.569Z,14.18
2022-12-26T08:30:25.984Z,14.10
2022-12-26T08:32:54.380Z,14.19
2022-12-26T08:35:24.154Z,13.98
2022-12-26T08:37:52.430Z,14.07
2022-12-26T08:40:40.054Z,13.99
2022-12-26T08:46:04.706Z,13.97
2022-12-26T08:48:33.728Z,13.97
2022-12-26T08:51:06.223Z,13.94
2022-12-26T08:53:36.125Z,14.08
2022-12-26T08:56:05.901Z,14.14
2022-12-26T08:58:35.421Z,14.20
2022-12-26T09:01:08.651Z,14.13
2022-12-26T09:03:37.162Z,14.18
2022-12-26T09:06:07.496Z,13.99
2022-12-26T09:08:37.289Z,14.06
2022-12-26T09:11:06.817Z,14.06
2022-12-26T09:13:35.842Z,14.00
2022-12-26T09:16:08.927Z,14.01
2022-12-26T09:18:37.711Z,14.11
2022-12-26T09:21:09.719Z,14.03
2022-12-26T09:23:39.386Z,14.05
2022-12-26T09:26:09.846Z,13.96
2022-12-26T09:28:38.473Z,14.00
2022-12-26T09:31:08.570Z,13.88
2022-12-26T09:33:37.787Z,14.09
2022-12-26T09:36:14.297Z,13.98
2022-12-26T09:38:44.065Z,14.11
2022-12-26T09:41:30.441Z,13.88
2022-12-26T09:44:07.056Z,13.98
2022-12-26T09:46:40.054Z,14.18
2022-12-26T09:49:13.657Z,14.19
2022-12-26T09:51:47.350Z,14.13
2022-12-26T09:54:23.241Z,14.04
2022-12-26T09:57:02.416Z,14.06
2022-12-26T09:59:35.667Z,14.07
2022-12-26T10:02:04.188Z,13.93
2022-12-26T10:04:32.547Z,13.83
2022-12-26T10:07:13.708Z,13.75
2022-12-26T10:09:54.198Z,13.76
2022-12-26T10:12:37.167Z,13.80
2022-12-26T10:15:20.088Z,13.70
2022-12-26T10:17:57.333Z,13.77
2022-12-26T10:20:32.737Z,13.86
2022-12-26T10:23:18.832Z,13.68
2022-12-26T10:25:49.620Z,13.86
2022-12-26T10:28:26.837Z,13.94
2022-12-26T10:30:57.472Z,13.94
2022-12-26T10:33:34.666Z,13.98
2022-12-26T10:36:03.786Z,14.08
2022-12-26T10:38:37.379Z,14.07
2022-12-26T10:41:14.178Z,14.08
2022-12-26T10:43:45.095Z,14.08
2022-12-26T10:46:46.084Z,14.11
2022-12-26T10:49:17.225Z,14.15
2022-12-26T10:51:45.819Z,14.11
2022-12-26T10:54:18.521Z,14.28
2022-12-26T10:57:11.996Z,14.55
2022-12-26T10:59:46.181Z,14.75
2022-12-26T11:02:26.738Z,14.74
2022-12-26T11:05:33.469Z,14.44
2022-12-26T11:07:54.994Z,14.33
2022-12-26T11:10:29.280Z,14.17
2022-12-26T11:13:01.250Z,13.99
2022-12-26T11:15:33.646Z,13.69
2022-12-26T11:18:20.819Z,13.52
2022-12-26T11:20:50.035Z,13.33
2022-12-26T11:23:27.794Z,13.36
2022-12-26T11:25:59.227Z,13.19
2022-12-26T11:28:32.339Z,13.05
2022-12-26T11:31:02.527Z,13.10
2022-12-26T11:33:33.981Z,13.14
2022-12-26T11:36:12.965Z,13.05
2022-12-26T11:38:50.518Z,12.87
2022-12-26T11:41:36.661Z,12.60
2022-12-26T11:44:19.322Z,12.48
2022-12-26T11:46:51.136Z,12.29
2022-12-26T11:49:23.979Z,12.22
2022-12-26T11:51:58.699Z,12.27
2022-12-26T11:54:35.184Z,12.31
2022-12-26T11:57:22.229Z,12.33
2022-12-26T11:59:52.882Z,12.30
2022-12-26T12:02:31.360Z,12.25
2022-12-26T12:05:03.833Z,12.32
2022-12-26T12:07:51.325Z,12.33
2022-12-26T12:10:50.735Z,12.14
2022-12-26T12:13:32.688Z,12.27
2022-12-26T12:16:10.190Z,12.23
2022-12-26T12:18:51.415Z,12.32
2022-12-26T12:21:31.990Z,12.32
2022-12-26T12:24:22.703Z,12.38
2022-12-26T12:27:04.981Z,12.28
2022-12-26T12:30:04.011Z,12.41
2022-12-26T12:32:39.051Z,12.71
2022-12-26T12:35:33.317Z,12.88
2022-12-26T12:38:15.662Z,13.10
2022-12-26T12:40:52.925Z,13.22
2022-12-26T12:43:30.752Z,12.96
2022-12-26T12:46:09.734Z,12.86
2022-12-26T12:49:03.550Z,13.15
2022-12-26T12:51:42.262Z,13.37
2022-12-26T12:54:40.049Z,13.18
2022-12-26T12:57:16.908Z,12.99
2022-12-26T12:59:55.729Z,12.95
2022-12-26T13:02:31.789Z,12.67
2022-12-26T13:05:09.529Z,12.56
2022-12-26T13:07:46.889Z,12.42
2022-12-26T13:10:20.656Z,12.29
2022-12-26T13:12:50.325Z,12.19
2022-12-26T13:15:27.500Z,12.26
2022-12-26T13:18:01.788Z,12.18
2022-12-26T13:20:38.058Z,12.11
2022-12-26T13:23:29.928Z,12.12
2022-12-26T13:26:07.332Z,12.18
2022-12-26T13:28:40.941Z,12.19
2022-12-26T13:31:09.082Z,12.23
2022-12-26T13:33:38.612Z,12.29
2022-12-26T13:36:07.965Z,12.42
2022-12-26T13:39:13.275Z,12.37
2022-12-26T13:42:05.572Z,12.45
2022-12-26T13:44:33.961Z,12.50
2022-12-26T13:47:02.109Z,12.51
2022-12-26T13:49:37.133Z,12.46
2022-12-26T13:52:33.770Z,12.38
2022-12-26T13:55:43.963Z,12.46
2022-12-26T13:58:38.480Z,12.90
2022-12-26T14:01:18.670Z,13.24
2022-12-26T14:04:02.848Z,13.25
2022-12-26T14:07:05.039Z,13.31
2022-12-26T14:09:59.543Z,13.22
2022-12-26T14:12:44.507Z,12.82
2022-12-26T14:15:27.027Z,12.45
2022-12-26T14:18:05.182Z,12.29
2022-12-26T14:20:42.550Z,12.20
2022-12-26T14:23:39.573Z,12.03
2022-12-26T14:26:19.191Z,11.91
2022-12-26T14:28:55.678Z,11.72
2022-12-26T14:31:42.067Z,11.70
2022-12-26T14:34:22.442Z,11.64
2022-12-26T14:36:57.772Z,11.57
2022-12-26T14:39:37.055Z,11.43
2022-12-26T14:42:39.531Z,11.41
2022-12-26T14:45:36.659Z,11.43
2022-12-26T14:48:25.184Z,11.42
2022-12-26T14:50:55.402Z,11.51
2022-12-26T14:53:34.880Z,11.40
2022-12-26T14:56:26.711Z,11.42
2022-12-26T14:59:27.787Z,11.26
2022-12-26T15:02:12.031Z,11.16
2022-12-26T15:04:53.924Z,10.99
2022-12-26T15:07:51.978Z,10.86
2022-12-26T15:10:54.030Z,10.77
2022-12-26T15:13:57.570Z,10.65
2022-12-26T15:16:44.081Z,10.54
2022-12-26T15:19:56.368Z,10.41
2022-12-26T15:22:59.523Z,10.34
2022-12-26T15:26:10.711Z,10.24
2022-12-26T15:29:04.936Z,10.16
2022-12-26T15:31:49.249Z,10.05
2022-12-26T15:34:45.847Z,10.11
2022-12-26T15:37:25.673Z,10.06
2022-12-26T15:39:58.664Z,10.01
2022-12-26T15:42:39.775Z,10.05
2022-12-26T15:45:27.986Z,9.97
2022-12-26T15:48:05.675Z,10.00
2022-12-26T15:50:42.553Z,10.00
2022-12-26T15:53:20.489Z,10.06
2022-12-26T15:56:12.012Z,10.01
2022-12-26T15:59:08.971Z,10.04
2022-12-26T16:01:40.827Z,9.98
2022-12-26T16:04:18.569Z,9.93
2022-12-26T16:07:08.224Z,9.86
2022-12-26T16:09:43.605Z,9.92
2022-12-26T16:12:27.529Z,9.92
2022-12-26T16:15:14.631Z,9.91
2022-12-26T16:17:44.011Z,9.91
2022-12-26T16:20:41.902Z,9.89
2022-12-26T16:23:15.639Z,9.80
2022-12-26T16:25:48.310Z,9.84
2022-12-26T16:28:17.841Z,9.72
2022-12-26T16:30:46.063Z,9.72
2022-12-26T16:33:15.632Z,9.65
2022-12-26T16:35:45.431Z,9.64
2022-12-26T16:38:16.390Z,9.61
2022-12-26T16:40:46.126Z,9.57
2022-12-26T16:43:34.580Z,9.52
2022-12-26T16:46:05.886Z,9.61
2022-12-26T16:48:37.162Z,9.56
2022-12-26T16:51:09.304Z,9.56
2022-12-26T16:53:45.374Z,9.53
2022-12-26T16:56:27.677Z,9.42
2022-12-26T16:59:04.577Z,9.48
2022-12-26T17:01:34.708Z,9.48
2022-12-26T17:04:05.549Z,9.52
2022-12-26T17:06:38.116Z,9.52
2022-12-26T17:09:09.748Z,9.45
2022-12-26T17:11:40.476Z,9.38
2022-12-26T17:14:18.739Z,9.42
2022-12-26T17:16:46.846Z,9.44
2022-12-26T17:19:20.135Z,9.44
2022-12-26T17:22:23.859Z,9.41
2022-12-26T17:24:57.719Z,9.44
2022-12-26T17:27:27.649Z,9.38
2022-12-26T17:30:01.050Z,9.51
2022-12-26T17:32:36.450Z,9.44
2022-12-26T17:35:07.692Z,9.38
2022-12-26T17:37:36.352Z,9.48
2022-12-26T17:40:19.669Z,9.51
2022-12-26T17:42:50.272Z,9.50
2022-12-26T17:45:20.130Z,9.45
2022-12-26T17:47:48.717Z,9.38
2022-12-26T17:50:16.812Z,9.46
2022-12-26T17:52:44.946Z,9.42
2022-12-26T17:55:19.848Z,9.44
2022-12-26T17:57:48.657Z,9.47
2022-12-26T18:00:19.275Z,9.31
2022-12-26T18:02:47.551Z,9.40
2022-12-26T18:05:15.849Z,9.44
2022-12-26T18:07:44.970Z,9.38
2022-12-26T18:10:20.563Z,9.32
2022-12-26T18:12:49.248Z,9.33
2022-12-26T18:15:17.783Z,9.36
2022-12-26T18:17:46.963Z,9.38
2022-12-26T18:20:18.194Z,9.31
2022-12-26T18:22:47.668Z,9.32
2022-12-26T18:25:19.086Z,9.36
2022-12-26T18:27:47.725Z,9.32
2022-12-26T18:30:18.189Z,9.22
2022-12-26T18:32:47.494Z,9.27
2022-12-26T18:35:15.890Z,9.18
2022-12-26T18:37:47.919Z,9.14
2022-12-26T18:40:28.791Z,8.97
2022-12-26T18:42:57.166Z,8.90
2022-12-26T18:45:25.925Z,8.98
2022-12-26T18:47:54.106Z,8.98
2022-12-26T18:50:22.257Z,9.02
2022-12-26T18:52:53.729Z,8.85
2022-12-26T18:55:25.368Z,8.91
2022-12-26T18:57:54.212Z,8.85
2022-12-26T19:00:23.129Z,8.87
2022-12-26T19:02:52.169Z,8.88
2022-12-26T19:05:22.095Z,8.86
2022-12-26T19:07:50.697Z,8.73
2022-12-26T19:10:20.731Z,8.79
2022-12-26T19:12:50.633Z,8.80
2022-12-26T19:15:18.845Z,8.68
2022-12-26T19:17:47.286Z,8.68
2022-12-26T19:20:20.739Z,8.79
2022-12-26T19:22:50.093Z,8.66
2022-12-26T19:25:19.696Z,8.70
2022-12-26T19:27:50.265Z,8.62
2022-12-26T19:30:19.638Z,8.62
2022-12-26T19:32:48.447Z,8.59
2022-12-26T19:35:17.542Z,8.45
2022-12-26T19:37:45.941Z,8.53
2022-12-26T19:40:21.228Z,8.55
2022-12-26T19:42:54.692Z,8.71
2022-12-26T19:45:23.197Z,8.64
2022-12-26T19:47:51.457Z,8.56
2022-12-26T19:50:19.823Z,8.65
2022-12-26T19:52:48.075Z,8.70
2022-12-26T19:55:16.362Z,8.72
2022-12-26T19:57:44.793Z,8.90
2022-12-26T20:00:15.167Z,9.09
2022-12-26T20:02:43.698Z,9.10
2022-12-26T20:05:12.124Z,9.24
2022-12-26T20:07:40.593Z,9.27
2022-12-26T20:10:09.246Z,9.09
2022-12-26T20:12:37.490Z,9.18
2022-12-26T20:15:06.636Z,9.20
2022-12-26T20:17:36.382Z,9.16
2022-12-26T20:20:05.139Z,9.16
2022-12-26T20:22:33.552Z,9.24
2022-12-26T20:25:01.881Z,9.22
2022-12-26T20:27:30.228Z,9.19
2022-12-26T20:29:58.458Z,9.19
2022-12-26T20:32:26.842Z,9.02
2022-12-26T20:34:56.446Z,9.03
2022-12-26T20:37:24.693Z,9.06
2022-12-26T20:39:53.086Z,8.98
2022-12-26T20:42:21.381Z,9.00
2022-12-26T20:44:49.650Z,8.89
2022-12-26T20:47:18.091Z,8.96
2022-12-26T20:49:46.408Z,8.91
2022-12-26T20:52:16.616Z,8.81
2022-12-26T20:54:46.951Z,8.79
2022-12-26T20:57:15.387Z,8.80
2022-12-26T20:59:43.841Z,8.71
2022-12-26T21:02:13.899Z,8.81
2022-12-26T21:04:42.425Z,8.81
2022-12-26T21:07:10.680Z,8.85
2022-12-26T21:09:45.989Z,8.91
2022-12-26T21:12:15.051Z,8.82
2022-12-26T21:14:43.553Z,8.83
2022-12-26T21:17:11.961Z,8.81
2022-12-26T21:19:40.325Z,8.81
2022-12-26T21:22:08.601Z,8.90
2022-12-26T21:24:37.082Z,8.94
2022-12-26T21:27:06.878Z,8.92
2022-12-26T21:29:36.361Z,9.02
2022-12-26T21:32:06.047Z,8.97
2022-12-26T21:34:35.023Z,9.01
2022-12-26T21:37:20.935Z,9.04
2022-12-26T21:39:50.720Z,8.90
2022-12-26T21:42:20.818Z,8.86
2022-12-26T21:44:49.177Z,8.78
2022-12-26T21:47:17.481Z,8.79
2022-12-26T21:49:45.780Z,8.78
2022-12-26T21:52:14.076Z,8.67
2022-12-26T21:55:00.254Z,8.63
2022-12-26T21:57:30.722Z,8.53
2022-12-26T21:59:59.613Z,8.51
2022-12-26T22:02:47.423Z,8.50
2022-12-26T22:05:16.678Z,8.60
2022-12-26T22:07:45.342Z,8.53
2022-12-26T22:10:34.784Z,8.58
2022-12-26T22:13:05.562Z,8.50
2022-12-26T22:15:51.841Z,8.44
2022-12-26T22:18:20.592Z,8.47
2022-12-26T22:20:49.081Z,8.41
2022-12-26T22:23:17.413Z,8.29
2022-12-26T22:25:45.673Z,8.38
2022-12-26T22:28:20.184Z,8.43
2022-12-26T22:30:51.956Z,8.44
2022-12-26T22:33:21.219Z,8.46
2022-12-26T22:35:49.781Z,8.53
2022-12-26T22:38:18.456Z,8.56
2022-12-26T22:40:55.144Z,8.55
2022-12-26T22:43:26.076Z,8.58
2022-12-26T22:45:55.081Z,8.56
2022-12-26T22:48:24.309Z,8.50
2022-12-26T22:50:55.143Z,8.59
2022-12-26T22:53:27.487Z,8.55
2022-12-26T22:55:59.611Z,8.50
2022-12-26T22:58:30.656Z,8.44
2022-12-26T23:00:59.921Z,8.45
2022-12-26T23:03:28.938Z,8.47
2022-12-26T23:05:58.021Z,8.48
2022-12-26T23:08:29.293Z,8.50
2022-12-26T23:10:59.481Z,8.55
2022-12-26T23:13:30.047Z,8.46
2022-12-26T23:16:03.525Z,8.48
2022-12-26T23:18:54.146Z,8.46
2022-12-26T23:21:42.319Z,8.50
2022-12-26T23:24:14.020Z,8.44
2022-12-26T23:26:44.298Z,8.39
2022-12-26T23:29:32.475Z,8.28
2022-12-26T23:32:01.150Z,8.20
2022-12-26T23:34:29.776Z,8.15
2022-12-26T23:36:58.152Z,8.13
2022-12-26T23:39:26.623Z,8.20
2022-12-26T23:41:54.945Z,8.09
2022-12-26T23:44:24.652Z,8.16
2022-12-26T23:46:53.012Z,8.20
2022-12-26T23:49:21.257Z,8.28
2022-12-26T23:51:49.558Z,8.32
2022-12-26T23:54:17.845Z,8.28
2022-12-26T23:56:46.297Z,8.17
2022-12-26T23:59:14.567Z,8.16
